sensor_id;sensor_type;location;lat;lon;timestamp;pressure;altitude;pressure_sealevel;temperature;humidity
71105;BME280;58760;48.716;8.962;2022-12-18T00:01:48;97521.50;;;-11.48;82.54
71105;BME280;58760;48.716;8.962;2022-12-18T00:04:22;97527.38;;;-11.42;82.98
71105;BME280;58760;48.716;8.962;2022-12-18T00:06:47;97534.13;;;-11.33;82.98
71105;BME280;58760;48.716;8.962;2022-12-18T00:09:13;97529.63;;;-11.15;82.89
71105;BME280;58760;48.716;8.962;2022-12-18T00:11:38;97520.50;;;-11.35;82.54
71105;BME280;58760;48.716;8.962;2022-12-18T00:14:04;97526.41;;;-11.29;83.19
71105;BME280;58760;48.716;8.962;2022-12-18T00:16:29;97521.94;;;-11.15;82.69
71105;BME280;58760;48.716;8.962;2022-12-18T00:19:00;97530.63;;;-11.26;82.64
71105;BME280;58760;48.716;8.962;2022-12-18T00:21:27;97523.09;;;-11.40;82.28
71105;BME280;58760;48.716;8.962;2022-12-18T00:23:53;97530.84;;;-11.44;82.10
71105;BME280;58760;48.716;8.962;2022-12-18T00:26:23;97522.28;;;-11.43;82.47
71105;BME280;58760;48.716;8.962;2022-12-18T00:28:49;97521.44;;;-11.45;82.38
71105;BME280;58760;48.716;8.962;2022-12-18T00:31:19;97534.03;;;-11.26;82.38
71105;BME280;58760;48.716;8.962;2022-12-18T00:33:44;97536.44;;;-11.13;81.58
71105;BME280;58760;48.716;8.962;2022-12-18T00:36:13;97528.03;;;-11.23;81.73
71105;BME280;58760;48.716;8.962;2022-12-18T00:38:39;97532.88;;;-10.99;80.88
71105;BME280;58760;48.716;8.962;2022-12-18T00:41:06;97532.38;;;-11.30;80.74
71105;BME280;58760;48.716;8.962;2022-12-18T00:43:35;97532.28;;;-11.22;80.84
71105;BME280;58760;48.716;8.962;2022-12-18T00:46:01;97533.31;;;-11.40;81.08
71105;BME280;58760;48.716;8.962;2022-12-18T00:48:27;97533.44;;;-11.50;82.02
71105;BME280;58760;48.716;8.962;2022-12-18T00:50:52;97529.09;;;-11.42;82.19
71105;BME280;58760;48.716;8.962;2022-12-18T00:53:18;97533.41;;;-11.44;81.60
71105;BME280;58760;48.716;8.962;2022-12-18T00:55:44;97537.78;;;-11.57;81.55
71105;BME280;58760;48.716;8.962;2022-12-18T00:58:12;97538.56;;;-11.50;82.04
71105;BME280;58760;48.716;8.962;2022-12-18T01:00:37;97541.97;;;-11.50;82.11
71105;BME280;58760;48.716;8.962;2022-12-18T01:03:04;97547.13;;;-11.53;82.40
71105;BME280;58760;48.716;8.962;2022-12-18T01:05:30;97541.25;;;-11.62;82.29
71105;BME280;58760;48.716;8.962;2022-12-18T01:07:56;97537.09;;;-11.73;82.18
71105;BME280;58760;48.716;8.962;2022-12-18T01:10:23;97530.19;;;-11.64;82.49
71105;BME280;58760;48.716;8.962;2022-12-18T01:12:48;97528.50;;;-11.69;82.46
71105;BME280;58760;48.716;8.962;2022-12-18T01:15:15;97536.25;;;-11.73;82.22
71105;BME280;58760;48.716;8.962;2022-12-18T01:17:40;97538.13;;;-11.87;81.76
71105;BME280;58760;48.716;8.962;2022-12-18T01:20:07;97530.47;;;-11.92;81.90
71105;BME280;58760;48.716;8.962;2022-12-18T01:22:34;97529.66;;;-11.94;82.13
71105;BME280;58760;48.716;8.962;2022-12-18T01:24:59;97533.84;;;-11.90;81.98
71105;BME280;58760;48.716;8.962;2022-12-18T01:27:25;97534.81;;;-12.00;81.73
71105;BME280;58760;48.716;8.962;2022-12-18T01:29:51;97526.34;;;-12.06;81.70
71105;BME280;58760;48.716;8.962;2022-12-18T01:32:16;97534.03;;;-12.11;81.81
71105;BME280;58760;48.716;8.962;2022-12-18T01:34:42;97530.66;;;-12.14;81.90
71105;BME280;58760;48.716;8.962;2022-12-18T01:37:07;97540.00;;;-12.10;82.09
71105;BME280;58760;48.716;8.962;2022-12-18T01:39:33;97547.47;;;-11.86;81.68
71105;BME280;58760;48.716;8.962;2022-12-18T01:41:59;97545.50;;;-11.61;80.92
71105;BME280;58760;48.716;8.962;2022-12-18T01:47:39;97547.34;;;-11.73;80.57
71105;BME280;58760;48.716;8.962;2022-12-18T01:50:12;97549.81;;;-11.65;80.67
71105;BME280;58760;48.716;8.962;2022-12-18T01:52:43;97541.94;;;-11.45;79.71
71105;BME280;58760;48.716;8.962;2022-12-18T01:55:11;97531.69;;;-11.47;78.87
71105;BME280;58760;48.716;8.962;2022-12-18T01:57:39;97532.38;;;-11.30;79.02
71105;BME280;58760;48.716;8.962;2022-12-18T02:00:12;97522.81;;;-11.17;78.35
71105;BME280;58760;48.716;8.962;2022-12-18T02:02:38;97527.22;;;-11.27;78.48
71105;BME280;58760;48.716;8.962;2022-12-18T02:05:04;97526.41;;;-11.29;78.33
71105;BME280;58760;48.716;8.962;2022-12-18T02:07:43;97538.53;;;-11.47;77.99
71105;BME280;58760;48.716;8.962;2022-12-18T02:10:17;97542.72;;;-11.40;78.92
71105;BME280;58760;48.716;8.962;2022-12-18T02:15:20;97533.31;;;-11.40;78.03
71105;BME280;58760;48.716;8.962;2022-12-18T02:17:57;97530.72;;;-11.37;79.10
71105;BME280;58760;48.716;8.962;2022-12-18T02:20:48;97530.78;;;-11.40;78.67
71105;BME280;58760;48.716;8.962;2022-12-18T02:26:15;97534.81;;;-11.19;77.44
71105;BME280;58760;48.716;8.962;2022-12-18T02:29:05;97544.25;;;-11.24;77.42
71105;BME280;58760;48.716;8.962;2022-12-18T02:31:37;97541.09;;;-11.47;77.22
71105;BME280;58760;48.716;8.962;2022-12-18T02:34:07;97557.13;;;-11.30;77.75
71105;BME280;58760;48.716;8.962;2022-12-18T02:36:35;97547.91;;;-11.45;78.59
71105;BME280;58760;48.716;8.962;2022-12-18T02:39:02;97546.38;;;-11.62;78.08
71105;BME280;58760;48.716;8.962;2022-12-18T02:41:28;97549.09;;;-11.79;78.92
71105;BME280;58760;48.716;8.962;2022-12-18T02:43:58;97548.28;;;-11.81;79.43
71105;BME280;58760;48.716;8.962;2022-12-18T02:48:57;97557.75;;;-11.92;79.78
71105;BME280;58760;48.716;8.962;2022-12-18T02:51:29;97566.31;;;-11.99;80.11
71105;BME280;58760;48.716;8.962;2022-12-18T02:54:07;97568.00;;;-11.95;80.66
71105;BME280;58760;48.716;8.962;2022-12-18T02:56:46;97555.09;;;-11.82;80.44
71105;BME280;58760;48.716;8.962;2022-12-18T02:59:20;97551.63;;;-11.75;80.67
71105;BME280;58760;48.716;8.962;2022-12-18T03:01:58;97547.16;;;-11.56;80.90
71105;BME280;58760;48.716;8.962;2022-12-18T03:04:34;97539.38;;;-11.45;80.95
71105;BME280;58760;48.716;8.962;2022-12-18T03:07:06;97536.75;;;-11.41;81.11
71105;BME280;58760;48.716;8.962;2022-12-18T03:09:39;97555.50;;;-11.37;81.01
71105;BME280;58760;48.716;8.962;2022-12-18T03:12:15;97556.34;;;-11.37;81.07
71105;BME280;58760;48.716;8.962;2022-12-18T03:17:28;97558.56;;;-11.08;81.99
71105;BME280;58760;48.716;8.962;2022-12-18T03:19:56;97557.56;;;-10.93;82.12
71105;BME280;58760;48.716;8.962;2022-12-18T03:22:24;97554.91;;;-10.87;82.33
71105;BME280;58760;48.716;8.962;2022-12-18T03:24:53;97554.84;;;-10.81;82.35
71105;BME280;58760;48.716;8.962;2022-12-18T03:27:22;97561.72;;;-10.85;82.45
71105;BME280;58760;48.716;8.962;2022-12-18T03:29:57;97567.56;;;-10.75;82.77
71105;BME280;58760;48.716;8.962;2022-12-18T03:32:37;97565.00;;;-10.74;83.20
71105;BME280;58760;48.716;8.962;2022-12-18T03:35:05;97555.47;;;-10.64;83.23
71105;BME280;58760;48.716;8.962;2022-12-18T03:37:32;97557.00;;;-10.51;83.08
71105;BME280;58760;48.716;8.962;2022-12-18T03:39:58;97562.09;;;-10.48;83.28
71105;BME280;58760;48.716;8.962;2022-12-18T03:42:43;97552.69;;;-10.49;83.84
71105;BME280;58760;48.716;8.962;2022-12-18T03:45:12;97547.47;;;-10.41;84.30
71105;BME280;58760;48.716;8.962;2022-12-18T03:50:20;97548.91;;;-10.22;84.58
71105;BME280;58760;48.716;8.962;2022-12-18T03:55:18;97559.09;;;-10.19;85.39
71105;BME280;58760;48.716;8.962;2022-12-18T03:57:47;97554.69;;;-10.11;85.93
71105;BME280;58760;48.716;8.962;2022-12-18T04:00:15;97548.56;;;-10.04;86.06
71105;BME280;58760;48.716;8.962;2022-12-18T04:02:49;97544.00;;;-9.85;86.24
71105;BME280;58760;48.716;8.962;2022-12-18T04:05:16;97543.16;;;-9.86;86.33
71105;BME280;58760;48.716;8.962;2022-12-18T04:07:43;97541.34;;;-9.81;86.59
71105;BME280;58760;48.716;8.962;2022-12-18T04:10:10;97554.06;;;-9.73;86.95
71105;BME280;58760;48.716;8.962;2022-12-18T04:12:37;97546.19;;;-9.63;87.20
71105;BME280;58760;48.716;8.962;2022-12-18T04:15:04;97540.97;;;-9.58;87.31
71105;BME280;58760;48.716;8.962;2022-12-18T04:17:29;97546.72;;;-9.45;87.70
71105;BME280;58760;48.716;8.962;2022-12-18T04:19:55;97545.06;;;-9.46;87.71
71105;BME280;58760;48.716;8.962;2022-12-18T04:22:20;97555.97;;;-9.35;87.97
71105;BME280;58760;48.716;8.962;2022-12-18T04:24:48;97554.06;;;-9.24;87.95
71105;BME280;58760;48.716;8.962;2022-12-18T04:27:14;97559.16;;;-9.23;88.12
71105;BME280;58760;48.716;8.962;2022-12-18T04:29:39;97557.03;;;-9.01;88.15
71105;BME280;58760;48.716;8.962;2022-12-18T04:32:05;97555.53;;;-9.11;88.22
71105;BME280;58760;48.716;8.962;2022-12-18T04:34:30;97555.53;;;-9.11;88.73
71105;BME280;58760;48.716;8.962;2022-12-18T04:36:56;97554.53;;;-9.04;89.14
71105;BME280;58760;48.716;8.962;2022-12-18T04:39:21;97555.22;;;-8.96;89.65
71105;BME280;58760;48.716;8.962;2022-12-18T04:41:47;97561.94;;;-8.90;89.56
71105;BME280;58760;48.716;8.962;2022-12-18T04:44:13;97552.31;;;-8.79;89.80
71105;BME280;58760;48.716;8.962;2022-12-18T04:46:38;97545.31;;;-8.71;89.77
71105;BME280;58760;48.716;8.962;2022-12-18T04:49:04;97537.34;;;-8.61;89.50
71105;BME280;58760;48.716;8.962;2022-12-18T04:51:29;97534.47;;;-8.47;89.42
71105;BME280;58760;48.716;8.962;2022-12-18T04:53:54;97526.59;;;-8.39;89.33
71105;BME280;58760;48.716;8.962;2022-12-18T04:56:20;97527.47;;;-8.42;88.98
71105;BME280;58760;48.716;8.962;2022-12-18T04:58:45;97525.63;;;-8.35;88.73
71105;BME280;58760;48.716;8.962;2022-12-18T05:01:12;97535.97;;;-8.38;88.88
71105;BME280;58760;48.716;8.962;2022-12-18T05:03:38;97530.03;;;-8.40;89.15
71105;BME280;58760;48.716;8.962;2022-12-18T05:06:05;97530.72;;;-8.32;89.43
71105;BME280;58760;48.716;8.962;2022-12-18T05:08:31;97531.88;;;-8.45;89.40
71105;BME280;58760;48.716;8.962;2022-12-18T05:11:00;97540.41;;;-8.45;89.69
71105;BME280;58760;48.716;8.962;2022-12-18T05:13:27;97539.06;;;-8.23;89.86
71105;BME280;58760;48.716;8.962;2022-12-18T05:15:53;97535.63;;;-8.23;89.65
71105;BME280;58760;48.716;8.962;2022-12-18T05:18:18;97532.06;;;-8.18;90.07
71105;BME280;58760;48.716;8.962;2022-12-18T05:20:44;97527.63;;;-8.13;89.70
71105;BME280;58760;48.716;8.962;2022-12-18T05:23:09;97536.34;;;-8.18;89.60
71105;BME280;58760;48.716;8.962;2022-12-18T05:25:35;97543.16;;;-8.16;89.68
71105;BME280;58760;48.716;8.962;2022-12-18T05:28:00;97537.94;;;-8.13;89.70
71105;BME280;58760;48.716;8.962;2022-12-18T05:30:25;97549.78;;;-8.06;89.96
71105;BME280;58760;48.716;8.962;2022-12-18T05:32:51;97552.28;;;-8.03;89.85
71105;BME280;58760;48.716;8.962;2022-12-18T05:35:16;97553.81;;;-7.94;89.79
71105;BME280;58760;48.716;8.962;2022-12-18T05:37:42;97550.16;;;-7.85;89.97
71105;BME280;58760;48.716;8.962;2022-12-18T05:40:08;97559.47;;;-7.80;88.89
71105;BME280;58760;48.716;8.962;2022-12-18T05:42:33;97539.09;;;-7.89;88.56
71105;BME280;58760;48.716;8.962;2022-12-18T05:44:58;97538.88;;;-7.80;88.76
71105;BME280;58760;48.716;8.962;2022-12-18T05:47:24;97538.03;;;-7.80;88.77
71105;BME280;58760;48.716;8.962;2022-12-18T05:49:49;97539.03;;;-7.86;88.14
71105;BME280;58760;48.716;8.962;2022-12-18T05:52:15;97539.16;;;-7.92;87.51
71105;BME280;58760;48.716;8.962;2022-12-18T05:54:40;97533.06;;;-7.88;87.42
71105;BME280;58760;48.716;8.962;2022-12-18T05:57:05;97532.53;;;-8.01;86.38
71105;BME280;58760;48.716;8.962;2022-12-18T05:59:31;97536.03;;;-8.03;86.58
71105;BME280;58760;48.716;8.962;2022-12-18T06:01:56;97536.28;;;-8.15;86.62
71105;BME280;58760;48.716;8.962;2022-12-18T06:04:22;97540.78;;;-8.25;86.88
71105;BME280;58760;48.716;8.962;2022-12-18T06:06:48;97535.81;;;-8.29;86.97
71105;BME280;58760;48.716;8.962;2022-12-18T06:09:13;97546.88;;;-8.27;87.34
71105;BME280;58760;48.716;8.962;2022-12-18T06:11:38;97548.91;;;-8.40;86.37
71105;BME280;58760;48.716;8.962;2022-12-18T06:14:05;97558.53;;;-8.50;86.00
71105;BME280;58760;48.716;8.962;2022-12-18T06:16:31;97568.91;;;-8.53;86.09
71105;BME280;58760;48.716;8.962;2022-12-18T06:18:58;97564.69;;;-8.57;85.87
71105;BME280;58760;48.716;8.962;2022-12-18T06:21:23;97569.13;;;-8.65;85.26
71105;BME280;58760;48.716;8.962;2022-12-18T06:23:49;97575.03;;;-8.60;85.09
71105;BME280;58760;48.716;8.962;2022-12-18T06:26:14;97568.44;;;-8.71;85.37
71105;BME280;58760;48.716;8.962;2022-12-18T06:28:40;97568.47;;;-8.73;85.52
71105;BME280;58760;48.716;8.962;2022-12-18T06:31:06;97569.38;;;-8.77;85.12
71105;BME280;58760;48.716;8.962;2022-12-18T06:33:32;97572.97;;;-8.84;84.84
71105;BME280;58760;48.716;8.962;2022-12-18T06:36:09;97577.72;;;-9.07;84.81
71105;BME280;58760;48.716;8.962;2022-12-18T06:38:36;97580.47;;;-9.18;85.13
71105;BME280;58760;48.716;8.962;2022-12-18T06:41:09;97572.00;;;-9.23;85.28
71105;BME280;58760;48.716;8.962;2022-12-18T06:43:34;97572.09;;;-9.29;85.85
71105;BME280;58760;48.716;8.962;2022-12-18T06:46:00;97575.66;;;-9.34;85.91
71105;BME280;58760;48.716;8.962;2022-12-18T06:48:26;97577.75;;;-9.58;85.59
71105;BME280;58760;48.716;8.962;2022-12-18T06:50:52;97587.38;;;-9.70;84.42
71105;BME280;58760;48.716;8.962;2022-12-18T06:53:17;97585.94;;;-9.88;83.74
71105;BME280;58760;48.716;8.962;2022-12-18T06:55:43;97591.94;;;-9.87;83.30
71105;BME280;58760;48.716;8.962;2022-12-18T06:58:08;97594.13;;;-10.15;83.24
71105;BME280;58760;48.716;8.962;2022-12-18T07:00:34;97611.41;;;-10.29;83.92
71105;BME280;58760;48.716;8.962;2022-12-18T07:02:59;97617.34;;;-10.24;83.69
71105;BME280;58760;48.716;8.962;2022-12-18T07:05:24;97621.06;;;-10.49;83.33
71105;BME280;58760;48.716;8.962;2022-12-18T07:07:50;97628.03;;;-10.59;83.24
71105;BME280;58760;48.716;8.962;2022-12-18T07:10:15;97626.06;;;-10.37;84.04
71105;BME280;58760;48.716;8.962;2022-12-18T07:12:41;97625.38;;;-10.51;82.37
71105;BME280;58760;48.716;8.962;2022-12-18T07:15:07;97624.84;;;-10.78;83.15
71105;BME280;58760;48.716;8.962;2022-12-18T07:17:32;97623.19;;;-10.82;83.35
71105;BME280;58760;48.716;8.962;2022-12-18T07:19:58;97621.38;;;-10.74;83.79
71105;BME280;58760;48.716;8.962;2022-12-18T07:22:25;97624.06;;;-10.83;83.42
71105;BME280;58760;48.716;8.962;2022-12-18T07:24:50;97624.09;;;-10.87;83.80
71105;BME280;58760;48.716;8.962;2022-12-18T07:27:15;97620.63;;;-10.82;83.39
71105;BME280;58760;48.716;8.962;2022-12-18T07:29:41;97626.44;;;-10.69;82.89
71105;BME280;58760;48.716;8.962;2022-12-18T07:32:07;97629.00;;;-10.68;82.68
71105;BME280;58760;48.716;8.962;2022-12-18T07:34:32;97617.16;;;-10.78;82.96
71105;BME280;58760;48.716;8.962;2022-12-18T07:36:58;97617.19;;;-10.82;83.43
71105;BME280;58760;48.716;8.962;2022-12-18T07:39:23;97618.88;;;-10.78;84.01
71105;BME280;58760;48.716;8.962;2022-12-18T07:41:49;97629.03;;;-10.71;84.57
71105;BME280;58760;48.716;8.962;2022-12-18T07:44:34;97619.69;;;-10.73;84.64
71105;BME280;58760;48.716;8.962;2022-12-18T07:46:59;97633.34;;;-10.76;83.70
71105;BME280;58760;48.716;8.962;2022-12-18T07:49:25;97628.25;;;-10.79;83.39
71105;BME280;58760;48.716;8.962;2022-12-18T07:51:50;97634.22;;;-10.75;83.31
71105;BME280;58760;48.716;8.962;2022-12-18T07:54:16;97636.03;;;-10.83;83.32
71105;BME280;58760;48.716;8.962;2022-12-18T07:56:41;97639.28;;;-10.71;83.13
71105;BME280;58760;48.716;8.962;2022-12-18T07:59:06;97628.19;;;-10.73;82.50
71105;BME280;58760;48.716;8.962;2022-12-18T08:01:33;97635.13;;;-10.81;82.62
71105;BME280;58760;48.716;8.962;2022-12-18T08:03:59;97634.22;;;-10.74;82.99
71105;BME280;58760;48.716;8.962;2022-12-18T08:06:24;97641.13;;;-10.80;82.78
71105;BME280;58760;48.716;8.962;2022-12-18T08:08:54;97638.50;;;-10.77;82.99
71105;BME280;58760;48.716;8.962;2022-12-18T08:11:20;97636.78;;;-10.74;82.72
71105;BME280;58760;48.716;8.962;2022-12-18T08:13:45;97632.41;;;-10.67;82.73
71105;BME280;58760;48.716;8.962;2022-12-18T08:16:11;97642.56;;;-10.58;82.44
71105;BME280;58760;48.716;8.962;2022-12-18T08:18:37;97638.22;;;-10.53;82.58
71105;BME280;58760;48.716;8.962;2022-12-18T08:21:09;97634.81;;;-10.53;82.66
71105;BME280;58760;48.716;8.962;2022-12-18T08:23:35;97635.59;;;-10.47;82.41
71105;BME280;58760;48.716;8.962;2022-12-18T08:26:00;97635.56;;;-10.44;82.08
71105;BME280;58760;48.716;8.962;2022-12-18T08:28:26;97635.59;;;-10.48;81.79
71105;BME280;58760;48.716;8.962;2022-12-18T08:30:52;97630.34;;;-10.38;82.08
71105;BME280;58760;48.716;8.962;2022-12-18T08:33:17;97636.88;;;-10.17;82.65
71105;BME280;58760;48.716;8.962;2022-12-18T08:35:43;97632.28;;;-9.97;83.27
71105;BME280;58760;48.716;8.962;2022-12-18T08:38:09;97631.25;;;-9.84;83.34
71105;BME280;58760;48.716;8.962;2022-12-18T08:40:34;97631.84;;;-9.67;83.31
71105;BME280;58760;48.716;8.962;2022-12-18T08:43:00;97629.94;;;-9.56;83.07
71105;BME280;58760;48.716;8.962;2022-12-18T08:45:44;97639.06;;;-9.39;83.00
71105;BME280;58760;48.716;8.962;2022-12-18T08:48:09;97627.66;;;-9.23;83.11
71105;BME280;58760;48.716;8.962;2022-12-18T08:50:34;97631.75;;;-9.12;82.91
71105;BME280;58760;48.716;8.962;2022-12-18T08:53:00;97621.25;;;-8.99;82.50
71105;BME280;58760;48.716;8.962;2022-12-18T08:55:26;97616.78;;;-8.90;82.38
71105;BME280;58760;48.716;8.962;2022-12-18T08:57:51;97619.16;;;-8.81;82.22
71105;BME280;58760;48.716;8.962;2022-12-18T09:00:17;97614.06;;;-8.82;81.61
71105;BME280;58760;48.716;8.962;2022-12-18T09:02:42;97612.91;;;-8.68;81.68
71105;BME280;58760;48.716;8.962;2022-12-18T09:05:08;97613.75;;;-8.66;81.42
71105;BME280;58760;48.716;8.962;2022-12-18T09:07:34;97612.56;;;-8.50;81.49
71105;BME280;58760;48.716;8.962;2022-12-18T09:09:59;97611.50;;;-8.39;81.69
71105;BME280;58760;48.716;8.962;2022-12-18T09:12:25;97616.44;;;-8.30;81.70
71105;BME280;58760;48.716;8.962;2022-12-18T09:14:50;97607.69;;;-8.23;81.16
71105;BME280;58760;48.716;8.962;2022-12-18T09:17:16;97603.41;;;-8.24;81.05
71105;BME280;58760;48.716;8.962;2022-12-18T09:19:41;97602.41;;;-8.19;81.25
71105;BME280;58760;48.716;8.962;2022-12-18T09:22:07;97607.56;;;-8.17;81.17
71105;BME280;58760;48.716;8.962;2022-12-18T09:24:32;97602.25;;;-8.11;80.25
71105;BME280;58760;48.716;8.962;2022-12-18T09:26:57;97602.41;;;-8.17;79.36
71105;BME280;58760;48.716;8.962;2022-12-18T09:29:24;97606.41;;;-8.04;79.54
71105;BME280;58760;48.716;8.962;2022-12-18T09:31:49;97598.19;;;-7.83;81.02
71105;BME280;58760;48.716;8.962;2022-12-18T09:34:15;97596.84;;;-7.62;82.82
71105;BME280;58760;48.716;8.962;2022-12-18T09:36:41;97596.03;;;-7.64;81.55
71105;BME280;58760;48.716;8.962;2022-12-18T09:39:07;97598.56;;;-7.63;81.79
71105;BME280;58760;48.716;8.962;2022-12-18T09:41:51;97598.38;;;-7.55;82.45
71105;BME280;58760;48.716;8.962;2022-12-18T09:44:27;97599.88;;;-7.47;82.27
71105;BME280;58760;48.716;8.962;2022-12-18T09:47:09;97592.84;;;-7.40;82.15
71105;BME280;58760;48.716;8.962;2022-12-18T09:49:58;97592.19;;;-7.14;81.53
71105;BME280;58760;48.716;8.962;2022-12-18T09:52:35;97591.72;;;-6.96;81.67
71105;BME280;58760;48.716;8.962;2022-12-18T09:55:05;97600.94;;;-6.89;81.26
71105;BME280;58760;48.716;8.962;2022-12-18T09:57:42;97593.06;;;-6.83;82.35
71105;BME280;58760;48.716;8.962;2022-12-18T10:00:20;97594.38;;;-6.68;83.06
71105;BME280;58760;48.716;8.962;2022-12-18T10:02:46;97591.31;;;-6.52;83.34
71105;BME280;58760;48.716;8.962;2022-12-18T10:05:16;97604.19;;;-6.21;82.22
71105;BME280;58760;48.716;8.962;2022-12-18T10:07:58;97586.84;;;-6.16;82.05
71105;BME280;58760;48.716;8.962;2022-12-18T10:10:33;97589.78;;;-6.00;81.89
71105;BME280;58760;48.716;8.962;2022-12-18T10:13:15;97593.31;;;-6.03;81.66
71105;BME280;58760;48.716;8.962;2022-12-18T10:15:54;97591.41;;;-5.96;82.51
71105;BME280;58760;48.716;8.962;2022-12-18T10:18:38;97591.53;;;-5.74;82.04
71105;BME280;58760;48.716;8.962;2022-12-18T10:21:23;97593.78;;;-5.64;81.86
71105;BME280;58760;48.716;8.962;2022-12-18T10:26:24;97592.41;;;-5.48;82.42
71105;BME280;58760;48.716;8.962;2022-12-18T10:28:51;97590.69;;;-5.22;83.87
71105;BME280;58760;48.716;8.962;2022-12-18T10:31:19;97590.09;;;-5.04;84.22
71105;BME280;58760;48.716;8.962;2022-12-18T10:33:45;97590.13;;;-4.81;83.60
71105;BME280;58760;48.716;8.962;2022-12-18T10:36:10;97586.03;;;-4.62;82.44
71105;BME280;58760;48.716;8.962;2022-12-18T10:38:36;97577.69;;;-4.47;81.55
71105;BME280;58760;48.716;8.962;2022-12-18T10:43:39;97579.34;;;-4.23;79.96
71105;BME280;58760;48.716;8.962;2022-12-18T10:54:01;97582.59;;;-3.73;78.62
71105;BME280;58760;48.716;8.962;2022-12-18T10:56:29;97582.44;;;-3.68;78.10
71105;BME280;58760;48.716;8.962;2022-12-18T10:59:04;97567.50;;;-3.61;78.42
71105;BME280;58760;48.716;8.962;2022-12-18T11:04:17;97565.41;;;-3.53;77.93
71105;BME280;58760;48.716;8.962;2022-12-18T11:06:55;97565.63;;;-3.38;77.90
71105;BME280;58760;48.716;8.962;2022-12-18T11:09:26;97561.13;;;-3.33;77.49
71105;BME280;58760;48.716;8.962;2022-12-18T11:11:55;97556.31;;;-3.22;77.41
71105;BME280;58760;48.716;8.962;2022-12-18T11:14:22;97557.16;;;-3.21;77.31
71105;BME280;58760;48.716;8.962;2022-12-18T11:16:48;97541.72;;;-3.24;77.05
71105;BME280;58760;48.716;8.962;2022-12-18T11:19:33;97549.50;;;-3.04;76.75
71105;BME280;58760;48.716;8.962;2022-12-18T11:22:01;97549.19;;;-2.96;76.37
71105;BME280;58760;48.716;8.962;2022-12-18T11:24:33;97556.03;;;-2.75;75.86
71105;BME280;58760;48.716;8.962;2022-12-18T11:27:02;97552.91;;;-2.63;75.59
71105;BME280;58760;48.716;8.962;2022-12-18T11:29:32;97550.84;;;-2.55;75.36
71105;BME280;58760;48.716;8.962;2022-12-18T11:34:58;97547.28;;;-2.15;73.34
71105;BME280;58760;48.716;8.962;2022-12-18T11:37:25;97545.31;;;-2.10;73.17
71105;BME280;58760;48.716;8.962;2022-12-18T11:40:01;97527.59;;;-2.02;72.79
71105;BME280;58760;48.716;8.962;2022-12-18T11:48:04;97523.03;;;-1.27;70.79
71105;BME280;58760;48.716;8.962;2022-12-18T11:53:02;97517.13;;;-0.79;68.84
71105;BME280;58760;48.716;8.962;2022-12-18T11:55:56;97513.00;;;-0.50;67.42
71105;BME280;58760;48.716;8.962;2022-12-18T11:58:37;97521.16;;;-0.40;66.13
71105;BME280;58760;48.716;8.962;2022-12-18T12:17:31;97481.28;;;1.80;58.62
71105;BME280;58760;48.716;8.962;2022-12-18T12:20:20;97484.81;;;1.93;58.85
71105;BME280;58760;48.716;8.962;2022-12-18T12:22:55;97495.06;;;1.55;59.35
71105;BME280;58760;48.716;8.962;2022-12-18T12:25:52;97487.28;;;1.40;59.29
71105;BME280;58760;48.716;8.962;2022-12-18T12:34:04;97478.41;;;1.71;59.63
71105;BME280;58760;48.716;8.962;2022-12-18T12:39:06;97495.56;;;1.18;61.28
71105;BME280;58760;48.716;8.962;2022-12-18T12:41:34;97494.09;;;1.28;61.82
71105;BME280;58760;48.716;8.962;2022-12-18T12:44:26;97501.09;;;1.28;60.35
71105;BME280;58760;48.716;8.962;2022-12-18T12:46:56;97506.13;;;1.17;62.27
71105;BME280;58760;48.716;8.962;2022-12-18T12:49:27;97517.06;;;1.23;61.83
71105;BME280;58760;48.716;8.962;2022-12-18T12:52:03;97509.31;;;1.36;61.72
71105;BME280;58760;48.716;8.962;2022-12-18T12:54:29;97503.72;;;1.42;62.13
71105;BME280;58760;48.716;8.962;2022-12-18T12:57:15;97497.81;;;1.81;60.46
71105;BME280;58760;48.716;8.962;2022-12-18T13:02:35;97510.38;;;2.17;59.51
71105;BME280;58760;48.716;8.962;2022-12-18T13:07:47;97524.00;;;2.22;58.95
71105;BME280;58760;48.716;8.962;2022-12-18T13:13:27;97519.66;;;2.35;58.27
71105;BME280;58760;48.716;8.962;2022-12-18T13:16:11;97517.38;;;1.75;59.40
71105;BME280;58760;48.716;8.962;2022-12-18T13:18:37;97509.53;;;1.75;59.96
71105;BME280;58760;48.716;8.962;2022-12-18T13:21:13;97521.84;;;1.45;61.07
71105;BME280;58760;48.716;8.962;2022-12-18T13:23:43;97510.53;;;1.30;61.61
71105;BME280;58760;48.716;8.962;2022-12-18T13:31:12;97501.84;;;0.56;63.61
71105;BME280;58760;48.716;8.962;2022-12-18T13:33:45;97498.41;;;0.26;64.60
71105;BME280;58760;48.716;8.962;2022-12-18T13:41:35;97499.97;;;-0.34;66.97
71105;BME280;58760;48.716;8.962;2022-12-18T13:44:33;97490.06;;;-0.28;66.63
71105;BME280;58760;48.716;8.962;2022-12-18T13:47:01;97493.91;;;-0.50;67.15
71105;BME280;58760;48.716;8.962;2022-12-18T13:49:38;97482.78;;;-0.54;67.50
71105;BME280;58760;48.716;8.962;2022-12-18T13:52:19;97489.88;;;-0.56;67.54
71105;BME280;58760;48.716;8.962;2022-12-18T13:54:52;97493.06;;;-0.51;66.90
71105;BME280;58760;48.716;8.962;2022-12-18T13:57:35;97494.03;;;-0.69;67.03
71105;BME280;58760;48.716;8.962;2022-12-18T14:02:48;97503.00;;;-1.08;70.15
71105;BME280;58760;48.716;8.962;2022-12-18T14:05:32;97507.13;;;-1.21;70.60
71105;BME280;58760;48.716;8.962;2022-12-18T14:08:12;97495.03;;;-1.22;69.98
71105;BME280;58760;48.716;8.962;2022-12-18T14:10:43;97491.69;;;-1.24;70.02
71105;BME280;58760;48.716;8.962;2022-12-18T14:13:10;97500.72;;;-1.31;70.59
71105;BME280;58760;48.716;8.962;2022-12-18T14:15:40;97491.19;;;-1.49;70.78
71105;BME280;58760;48.716;8.962;2022-12-18T14:18:24;97499.94;;;-1.50;70.72
71105;BME280;58760;48.716;8.962;2022-12-18T14:20:52;97508.16;;;-1.59;71.53
71105;BME280;58760;48.716;8.962;2022-12-18T14:23:44;97498.31;;;-1.70;72.23
71105;BME280;58760;48.716;8.962;2022-12-18T14:26:21;97505.63;;;-1.78;72.56
71105;BME280;58760;48.716;8.962;2022-12-18T14:28:46;97506.13;;;-1.88;73.44
71105;BME280;58760;48.716;8.962;2022-12-18T14:31:24;97509.94;;;-2.14;73.37
71105;BME280;58760;48.716;8.962;2022-12-18T14:33:51;97507.72;;;-2.22;73.05
71105;BME280;58760;48.716;8.962;2022-12-18T14:36:19;97501.88;;;-2.27;74.34
71105;BME280;58760;48.716;8.962;2022-12-18T14:38:50;97502.03;;;-2.30;75.01
71105;BME280;58760;48.716;8.962;2022-12-18T14:41:17;97505.28;;;-2.25;75.45